sensor_id;sensor_type;location;lat;lon;timestamp;P1;durP1;ratioP1;P2;durP2;ratioP2
29092;SDS011;16167;48.768;14.984;2022-12-07T00:01:20;25.05;;;15.18;;
29092;SDS011;16167;48.768;14.984;2022-12-07T00:03:50;25.23;;;15.05;;
29092;SDS011;16167;48.768;14.984;2022-12-07T00:06:22;27.45;;;15.73;;
29092;SDS011;16167;48.768;14.984;2022-12-07T00:08:51;25.42;;;15.98;;
29092;SDS011;16167;48.768;14.984;2022-12-07T00:11:19;26.17;;;16.33;;
29092;SDS011;16167;48.768;14.984;2022-12-07T00:13:51;38.03;;;19.83;;
29092;SDS011;16167;48.768;14.984;2022-12-07T00:16:21;38.60;;;19.42;;
29092;SDS011;16167;48.768;14.984;2022-12-07T00:18:50;39.67;;;20.48;;
29092;SDS011;16167;48.768;14.984;2022-12-07T00:21:20;44.58;;;21.75;;
29092;SDS011;16167;48.768;14.984;2022-12-07T00:23:51;47.67;;;22.17;;
29092;SDS011;16167;48.768;14.984;2022-12-07T00:26:21;43.75;;;20.58;;
29092;SDS011;16167;48.768;14.984;2022-12-07T00:28:52;38.75;;;19.35;;
29092;SDS011;16167;48.768;14.984;2022-12-07T00:31:22;27.52;;;16.63;;
29092;SDS011;16167;48.768;14.984;2022-12-07T00:33:52;25.40;;;15.60;;
29092;SDS011;16167;48.768;14.984;2022-12-07T00:36:21;24.45;;;16.33;;
29092;SDS011;16167;48.768;14.984;2022-12-07T00:38:54;25.33;;;16.17;;
29092;SDS011;16167;48.768;14.984;2022-12-07T00:41:25;25.10;;;15.82;;
29092;SDS011;16167;48.768;14.984;2022-12-07T00:43:54;28.25;;;16.65;;
29092;SDS011;16167;48.768;14.984;2022-12-07T00:46:23;21.70;;;13.48;;
29092;SDS011;16167;48.768;14.984;2022-12-07T00:48:52;24.80;;;15.43;;
29092;SDS011;16167;48.768;14.984;2022-12-07T00:51:22;25.95;;;15.82;;
29092;SDS011;16167;48.768;14.984;2022-12-07T00:53:51;26.27;;;16.08;;
29092;SDS011;16167;48.768;14.984;2022-12-07T00:56:22;28.20;;;16.33;;
29092;SDS011;16167;48.768;14.984;2022-12-07T01:01:20;25.40;;;16.05;;
29092;SDS011;16167;48.768;14.984;2022-12-07T01:03:48;27.08;;;16.48;;
29092;SDS011;16167;48.768;14.984;2022-12-07T01:06:18;21.33;;;13.15;;
29092;SDS011;16167;48.768;14.984;2022-12-07T01:08:48;27.98;;;17.20;;
29092;SDS011;16167;48.768;14.984;2022-12-07T01:11:19;27.80;;;16.77;;
29092;SDS011;16167;48.768;14.984;2022-12-07T01:13:49;29.88;;;18.02;;
29092;SDS011;16167;48.768;14.984;2022-12-07T01:16:17;32.57;;;18.53;;
29092;SDS011;16167;48.768;14.984;2022-12-07T01:18:48;28.48;;;17.50;;
29092;SDS011;16167;48.768;14.984;2022-12-07T01:21:19;30.30;;;18.92;;
29092;SDS011;16167;48.768;14.984;2022-12-07T01:23:50;27.88;;;17.25;;
29092;SDS011;16167;48.768;14.984;2022-12-07T01:26:20;30.10;;;16.60;;
29092;SDS011;16167;48.768;14.984;2022-12-07T01:28:50;30.65;;;17.17;;
29092;SDS011;16167;48.768;14.984;2022-12-07T01:31:21;28.00;;;16.52;;
29092;SDS011;16167;48.768;14.984;2022-12-07T01:33:52;29.35;;;17.27;;
29092;SDS011;16167;48.768;14.984;2022-12-07T01:36:22;27.90;;;16.20;;
29092;SDS011;16167;48.768;14.984;2022-12-07T01:38:53;26.85;;;15.52;;
29092;SDS011;16167;48.768;14.984;2022-12-07T01:41:25;23.52;;;14.13;;
29092;SDS011;16167;48.768;14.984;2022-12-07T01:44:09;23.73;;;14.20;;
29092;SDS011;16167;48.768;14.984;2022-12-07T01:46:43;26.38;;;13.65;;
29092;SDS011;16167;48.768;14.984;2022-12-07T01:49:14;21.02;;;12.77;;
29092;SDS011;16167;48.768;14.984;2022-12-07T01:51:46;18.42;;;11.98;;
29092;SDS011;16167;48.768;14.984;2022-12-07T01:54:16;17.58;;;12.00;;
29092;SDS011;16167;48.768;14.984;2022-12-07T01:56:47;22.20;;;11.73;;
29092;SDS011;16167;48.768;14.984;2022-12-07T01:59:18;18.95;;;11.35;;
29092;SDS011;16167;48.768;14.984;2022-12-07T02:01:48;19.20;;;11.38;;
29092;SDS011;16167;48.768;14.984;2022-12-07T02:04:17;17.10;;;10.98;;
29092;SDS011;16167;48.768;14.984;2022-12-07T02:06:45;18.27;;;11.77;;
29092;SDS011;16167;48.768;14.984;2022-12-07T02:09:14;13.50;;;8.20;;
29092;SDS011;16167;48.768;14.984;2022-12-07T02:11:42;16.23;;;10.73;;
29092;SDS011;16167;48.768;14.984;2022-12-07T02:14:12;17.43;;;11.07;;
29092;SDS011;16167;48.768;14.984;2022-12-07T02:16:44;16.75;;;10.27;;
29092;SDS011;16167;48.768;14.984;2022-12-07T02:19:35;16.15;;;10.38;;
29092;SDS011;16167;48.768;14.984;2022-12-07T02:22:36;14.70;;;9.00;;
29092;SDS011;16167;48.768;14.984;2022-12-07T02:25:22;16.50;;;9.95;;
29092;SDS011;16167;48.768;14.984;2022-12-07T02:28:01;15.50;;;10.70;;
29092;SDS011;16167;48.768;14.984;2022-12-07T02:30:35;17.58;;;11.10;;
29092;SDS011;16167;48.768;14.984;2022-12-07T02:33:11;17.15;;;11.15;;
29092;SDS011;16167;48.768;14.984;2022-12-07T02:35:42;14.35;;;10.13;;
29092;SDS011;16167;48.768;14.984;2022-12-07T02:38:14;17.17;;;10.50;;
29092;SDS011;16167;48.768;14.984;2022-12-07T02:40:48;15.55;;;10.57;;
29092;SDS011;16167;48.768;14.984;2022-12-07T02:43:21;17.40;;;10.40;;
29092;SDS011;16167;48.768;14.984;2022-12-07T02:45:54;15.57;;;9.25;;
29092;SDS011;16167;48.768;14.984;2022-12-07T02:48:28;13.80;;;9.40;;
29092;SDS011;16167;48.768;14.984;2022-12-07T02:50:59;16.35;;;10.18;;
29092;SDS011;16167;48.768;14.984;2022-12-07T02:53:31;14.40;;;10.00;;
29092;SDS011;16167;48.768;14.984;2022-12-07T02:56:01;15.93;;;10.60;;
29092;SDS011;16167;48.768;14.984;2022-12-07T02:58:37;17.40;;;11.05;;
29092;SDS011;16167;48.768;14.984;2022-12-07T03:01:19;15.55;;;10.27;;
29092;SDS011;16167;48.768;14.984;2022-12-07T03:03:58;15.38;;;10.45;;
29092;SDS011;16167;48.768;14.984;2022-12-07T03:06:35;14.70;;;9.88;;
29092;SDS011;16167;48.768;14.984;2022-12-07T03:09:11;18.67;;;10.23;;
29092;SDS011;16167;48.768;14.984;2022-12-07T03:11:47;15.73;;;10.07;;
29092;SDS011;16167;48.768;14.984;2022-12-07T03:14:21;13.95;;;8.90;;
29092;SDS011;16167;48.768;14.984;2022-12-07T03:16:55;12.13;;;8.27;;
29092;SDS011;16167;48.768;14.984;2022-12-07T03:19:28;11.98;;;7.88;;
29092;SDS011;16167;48.768;14.984;2022-12-07T03:22:00;10.88;;;7.80;;
29092;SDS011;16167;48.768;14.984;2022-12-07T03:24:33;12.25;;;8.00;;
29092;SDS011;16167;48.768;14.984;2022-12-07T03:27:04;13.48;;;7.78;;
29092;SDS011;16167;48.768;14.984;2022-12-07T03:29:37;11.52;;;7.72;;
29092;SDS011;16167;48.768;14.984;2022-12-07T03:32:12;11.35;;;7.70;;
29092;SDS011;16167;48.768;14.984;2022-12-07T03:34:48;11.73;;;7.72;;
29092;SDS011;16167;48.768;14.984;2022-12-07T03:37:22;12.23;;;8.13;;
29092;SDS011;16167;48.768;14.984;2022-12-07T03:39:57;12.75;;;7.57;;
29092;SDS011;16167;48.768;14.984;2022-12-07T03:42:31;11.50;;;7.68;;
29092;SDS011;16167;48.768;14.984;2022-12-07T03:45:01;11.93;;;7.75;;
29092;SDS011;16167;48.768;14.984;2022-12-07T03:47:33;12.50;;;7.78;;
29092;SDS011;16167;48.768;14.984;2022-12-07T03:50:07;11.73;;;7.13;;
29092;SDS011;16167;48.768;14.984;2022-12-07T03:52:40;11.93;;;8.13;;
29092;SDS011;16167;48.768;14.984;2022-12-07T03:55:14;12.50;;;7.28;;
29092;SDS011;16167;48.768;14.984;2022-12-07T03:57:47;12.10;;;7.47;;
29092;SDS011;16167;48.768;14.984;2022-12-07T04:00:18;11.05;;;7.88;;
29092;SDS011;16167;48.768;14.984;2022-12-07T04:02:50;12.40;;;8.05;;
29092;SDS011;16167;48.768;14.984;2022-12-07T04:05:19;12.77;;;8.10;;
29092;SDS011;16167;48.768;14.984;2022-12-07T04:07:47;12.88;;;8.02;;
29092;SDS011;16167;48.768;14.984;2022-12-07T04:10:16;12.13;;;8.63;;
29092;SDS011;16167;48.768;14.984;2022-12-07T04:12:44;12.98;;;8.90;;
29092;SDS011;16167;48.768;14.984;2022-12-07T04:15:12;12.65;;;8.32;;
29092;SDS011;16167;48.768;14.984;2022-12-07T04:17:40;11.63;;;7.60;;
29092;SDS011;16167;48.768;14.984;2022-12-07T04:20:11;11.45;;;8.13;;
29092;SDS011;16167;48.768;14.984;2022-12-07T04:22:40;12.05;;;8.00;;
29092;SDS011;16167;48.768;14.984;2022-12-07T04:25:08;7.45;;;5.00;;
29092;SDS011;16167;48.768;14.984;2022-12-07T04:27:36;12.60;;;8.20;;
29092;SDS011;16167;48.768;14.984;2022-12-07T04:30:05;17.38;;;10.65;;
29092;SDS011;16167;48.768;14.984;2022-12-07T04:32:34;20.02;;;11.38;;
29092;SDS011;16167;48.768;14.984;2022-12-07T04:35:03;21.88;;;13.35;;
29092;SDS011;16167;48.768;14.984;2022-12-07T04:37:32;26.88;;;15.40;;
29092;SDS011;16167;48.768;14.984;2022-12-07T04:40:01;24.35;;;14.68;;
29092;SDS011;16167;48.768;14.984;2022-12-07T04:42:30;25.48;;;15.32;;
29092;SDS011;16167;48.768;14.984;2022-12-07T04:44:58;21.83;;;12.00;;
29092;SDS011;16167;48.768;14.984;2022-12-07T04:47:26;13.18;;;8.35;;
29092;SDS011;16167;48.768;14.984;2022-12-07T04:49:54;12.02;;;7.53;;
29092;SDS011;16167;48.768;14.984;2022-12-07T04:52:23;9.57;;;6.82;;
29092;SDS011;16167;48.768;14.984;2022-12-07T04:54:52;13.10;;;8.40;;
29092;SDS011;16167;48.768;14.984;2022-12-07T04:59:48;10.15;;;6.68;;
29092;SDS011;16167;48.768;14.984;2022-12-07T05:02:17;10.18;;;6.97;;
29092;SDS011;16167;48.768;14.984;2022-12-07T05:04:45;10.55;;;7.28;;
29092;SDS011;16167;48.768;14.984;2022-12-07T05:07:13;11.50;;;7.20;;
29092;SDS011;16167;48.768;14.984;2022-12-07T05:09:41;11.02;;;7.30;;
29092;SDS011;16167;48.768;14.984;2022-12-07T05:12:11;10.93;;;7.47;;
29092;SDS011;16167;48.768;14.984;2022-12-07T05:17:07;11.13;;;6.97;;
29092;SDS011;16167;48.768;14.984;2022-12-07T05:19:37;15.38;;;8.35;;
29092;SDS011;16167;48.768;14.984;2022-12-07T05:22:05;17.70;;;9.80;;
29092;SDS011;16167;48.768;14.984;2022-12-07T05:24:34;14.25;;;7.70;;
29092;SDS011;16167;48.768;14.984;2022-12-07T05:27:02;16.20;;;9.20;;
29092;SDS011;16167;48.768;14.984;2022-12-07T05:29:32;11.00;;;6.68;;
29092;SDS011;16167;48.768;14.984;2022-12-07T05:34:28;8.07;;;5.43;;
29092;SDS011;16167;48.768;14.984;2022-12-07T05:36:56;7.22;;;5.25;;
29092;SDS011;16167;48.768;14.984;2022-12-07T05:39:25;7.50;;;5.47;;
29092;SDS011;16167;48.768;14.984;2022-12-07T05:41:53;6.88;;;5.22;;
29092;SDS011;16167;48.768;14.984;2022-12-07T05:44:41;8.60;;;5.90;;
29092;SDS011;16167;48.768;14.984;2022-12-07T05:47:11;9.80;;;6.30;;
29092;SDS011;16167;48.768;14.984;2022-12-07T05:49:40;10.10;;;6.22;;
29092;SDS011;16167;48.768;14.984;2022-12-07T05:52:08;8.90;;;5.77;;
29092;SDS011;16167;48.768;14.984;2022-12-07T05:54:36;10.02;;;6.22;;
29092;SDS011;16167;48.768;14.984;2022-12-07T05:57:05;9.80;;;6.25;;
29092;SDS011;16167;48.768;14.984;2022-12-07T05:59:33;8.27;;;5.80;;
29092;SDS011;16167;48.768;14.984;2022-12-07T06:02:02;8.15;;;5.97;;
29092;SDS011;16167;48.768;14.984;2022-12-07T06:04:32;7.97;;;5.80;;
29092;SDS011;16167;48.768;14.984;2022-12-07T06:07:02;8.80;;;6.13;;
29092;SDS011;16167;48.768;14.984;2022-12-07T06:09:30;8.95;;;6.03;;
29092;SDS011;16167;48.768;14.984;2022-12-07T06:11:59;8.18;;;6.30;;
29092;SDS011;16167;48.768;14.984;2022-12-07T06:14:45;8.45;;;6.35;;
29092;SDS011;16167;48.768;14.984;2022-12-07T06:17:15;8.55;;;6.25;;
29092;SDS011;16167;48.768;14.984;2022-12-07T06:19:43;11.20;;;6.72;;
29092;SDS011;16167;48.768;14.984;2022-12-07T06:22:11;8.13;;;6.18;;
29092;SDS011;16167;48.768;14.984;2022-12-07T06:24:42;9.55;;;5.72;;
29092;SDS011;16167;48.768;14.984;2022-12-07T06:27:10;6.03;;;4.37;;
29092;SDS011;16167;48.768;14.984;2022-12-07T06:29:39;9.13;;;6.47;;
29092;SDS011;16167;48.768;14.984;2022-12-07T06:32:07;8.80;;;5.85;;
29092;SDS011;16167;48.768;14.984;2022-12-07T06:34:37;7.70;;;5.57;;
29092;SDS011;16167;48.768;14.984;2022-12-07T06:37:06;7.68;;;5.88;;
29092;SDS011;16167;48.768;14.984;2022-12-07T06:39:34;9.35;;;5.97;;
29092;SDS011;16167;48.768;14.984;2022-12-07T06:42:02;8.70;;;5.53;;
29092;SDS011;16167;48.768;14.984;2022-12-07T06:47:00;8.18;;;5.22;;
29092;SDS011;16167;48.768;14.984;2022-12-07T06:49:49;8.88;;;6.05;;
29092;SDS011;16167;48.768;14.984;2022-12-07T06:52:17;7.38;;;5.30;;
29092;SDS011;16167;48.768;14.984;2022-12-07T06:54:46;13.43;;;7.68;;
29092;SDS011;16167;48.768;14.984;2022-12-07T06:57:14;8.77;;;6.25;;
29092;SDS011;16167;48.768;14.984;2022-12-07T06:59:42;8.43;;;5.82;;
29092;SDS011;16167;48.768;14.984;2022-12-07T07:02:10;9.25;;;6.22;;
29092;SDS011;16167;48.768;14.984;2022-12-07T07:04:39;8.67;;;5.70;;
29092;SDS011;16167;48.768;14.984;2022-12-07T07:07:08;8.05;;;5.53;;
29092;SDS011;16167;48.768;14.984;2022-12-07T07:09:36;7.60;;;5.90;;
29092;SDS011;16167;48.768;14.984;2022-12-07T07:12:05;5.33;;;4.10;;
29092;SDS011;16167;48.768;14.984;2022-12-07T07:14:33;6.95;;;4.78;;
29092;SDS011;16167;48.768;14.984;2022-12-07T07:17:02;6.88;;;5.38;;
29092;SDS011;16167;48.768;14.984;2022-12-07T07:19:30;8.50;;;5.63;;
29092;SDS011;16167;48.768;14.984;2022-12-07T07:21:58;7.50;;;5.47;;
29092;SDS011;16167;48.768;14.984;2022-12-07T07:24:28;8.82;;;6.22;;
29092;SDS011;16167;48.768;14.984;2022-12-07T07:26:56;8.57;;;5.40;;
29092;SDS011;16167;48.768;14.984;2022-12-07T07:29:24;6.85;;;5.13;;
29092;SDS011;16167;48.768;14.984;2022-12-07T07:31:53;6.30;;;5.03;;
29092;SDS011;16167;48.768;14.984;2022-12-07T07:34:21;4.97;;;4.47;;
29092;SDS011;16167;48.768;14.984;2022-12-07T07:36:49;4.40;;;3.95;;
29092;SDS011;16167;48.768;14.984;2022-12-07T07:39:18;5.80;;;4.35;;
29092;SDS011;16167;48.768;14.984;2022-12-07T07:41:47;5.50;;;4.40;;
29092;SDS011;16167;48.768;14.984;2022-12-07T07:46:43;7.65;;;5.13;;
29092;SDS011;16167;48.768;14.984;2022-12-07T07:49:12;7.90;;;5.28;;
29092;SDS011;16167;48.768;14.984;2022-12-07T07:51:40;8.10;;;6.10;;
29092;SDS011;16167;48.768;14.984;2022-12-07T07:54:08;20.23;;;17.83;;
29092;SDS011;16167;48.768;14.984;2022-12-07T07:56:36;9.05;;;7.55;;
29092;SDS011;16167;48.768;14.984;2022-12-07T07:59:06;30.67;;;18.02;;
29092;SDS011;16167;48.768;14.984;2022-12-07T08:01:34;23.30;;;14.25;;
29092;SDS011;16167;48.768;14.984;2022-12-07T08:04:03;22.27;;;13.52;;
29092;SDS011;16167;48.768;14.984;2022-12-07T08:06:31;80.65;;;37.58;;
29092;SDS011;16167;48.768;14.984;2022-12-07T08:08:59;33.13;;;15.63;;
29092;SDS011;16167;48.768;14.984;2022-12-07T08:11:28;61.28;;;27.67;;
29092;SDS011;16167;48.768;14.984;2022-12-07T08:13:56;85.00;;;40.00;;
29092;SDS011;16167;48.768;14.984;2022-12-07T08:16:25;161.80;;;69.28;;
29092;SDS011;16167;48.768;14.984;2022-12-07T08:18:54;86.68;;;41.97;;
29092;SDS011;16167;48.768;14.984;2022-12-07T08:21:22;148.77;;;70.32;;
29092;SDS011;16167;48.768;14.984;2022-12-07T08:23:50;129.02;;;73.82;;
29092;SDS011;16167;48.768;14.984;2022-12-07T08:26:18;40.28;;;27.85;;
29092;SDS011;16167;48.768;14.984;2022-12-07T08:28:47;134.18;;;77.75;;
29092;SDS011;16167;48.768;14.984;2022-12-07T08:31:15;106.13;;;61.22;;
29092;SDS011;16167;48.768;14.984;2022-12-07T08:33:47;19.27;;;14.57;;
29092;SDS011;16167;48.768;14.984;2022-12-07T08:36:16;8.35;;;6.13;;
29092;SDS011;16167;48.768;14.984;2022-12-07T08:38:44;6.90;;;5.00;;
29092;SDS011;16167;48.768;14.984;2022-12-07T08:41:33;10.00;;;7.13;;
29092;SDS011;16167;48.768;14.984;2022-12-07T08:44:02;7.43;;;5.53;;
29092;SDS011;16167;48.768;14.984;2022-12-07T08:46:31;7.57;;;5.43;;
29092;SDS011;16167;48.768;14.984;2022-12-07T08:49:06;6.65;;;5.68;;
29092;SDS011;16167;48.768;14.984;2022-12-07T08:51:38;6.18;;;5.28;;
29092;SDS011;16167;48.768;14.984;2022-12-07T08:54:07;5.93;;;5.15;;
29092;SDS011;16167;48.768;14.984;2022-12-07T08:56:38;6.22;;;5.05;;
29092;SDS011;16167;48.768;14.984;2022-12-07T08:59:07;5.25;;;4.75;;
29092;SDS011;16167;48.768;14.984;2022-12-07T09:01:35;4.43;;;3.92;;
29092;SDS011;16167;48.768;14.984;2022-12-07T09:04:03;6.72;;;5.22;;
29092;SDS011;16167;48.768;14.984;2022-12-07T09:09:02;5.50;;;4.40;;
29092;SDS011;16167;48.768;14.984;2022-12-07T09:11:31;6.47;;;4.60;;
29092;SDS011;16167;48.768;14.984;2022-12-07T09:13:59;5.72;;;4.93;;
29092;SDS011;16167;48.768;14.984;2022-12-07T09:16:28;5.57;;;4.10;;
29092;SDS011;16167;48.768;14.984;2022-12-07T09:18:56;6.05;;;4.50;;
29092;SDS011;16167;48.768;14.984;2022-12-07T09:21:25;5.88;;;4.15;;
29092;SDS011;16167;48.768;14.984;2022-12-07T09:23:54;5.70;;;4.60;;
29092;SDS011;16167;48.768;14.984;2022-12-07T09:26:22;5.35;;;4.50;;
29092;SDS011;16167;48.768;14.984;2022-12-07T09:28:50;5.30;;;4.03;;
29092;SDS011;16167;48.768;14.984;2022-12-07T09:31:18;5.72;;;3.97;;
29092;SDS011;16167;48.768;14.984;2022-12-07T09:33:53;3.90;;;3.50;;
29092;SDS011;16167;48.768;14.984;2022-12-07T09:36:22;4.22;;;3.40;;
29092;SDS011;16167;48.768;14.984;2022-12-07T09:38:52;4.03;;;3.40;;
29092;SDS011;16167;48.768;14.984;2022-12-07T09:43:49;4.32;;;3.55;;
29092;SDS011;16167;48.768;14.984;2022-12-07T09:46:19;5.10;;;3.28;;
29092;SDS011;16167;48.768;14.984;2022-12-07T09:48:48;5.45;;;3.75;;
29092;SDS011;16167;48.768;14.984;2022-12-07T09:51:18;4.20;;;3.50;;
29092;SDS011;16167;48.768;14.984;2022-12-07T09:53:52;4.13;;;3.55;;
29092;SDS011;16167;48.768;14.984;2022-12-07T09:56:22;4.28;;;3.25;;
29092;SDS011;16167;48.768;14.984;2022-12-07T09:58:51;5.28;;;3.92;;
29092;SDS011;16167;48.768;14.984;2022-12-07T10:01:27;8.43;;;4.45;;
29092;SDS011;16167;48.768;14.984;2022-12-07T10:04:01;7.10;;;4.40;;
29092;SDS011;16167;48.768;14.984;2022-12-07T10:06:39;6.13;;;4.43;;
29092;SDS011;16167;48.768;14.984;2022-12-07T10:09:10;6.55;;;4.70;;
29092;SDS011;16167;48.768;14.984;2022-12-07T10:11:58;4.38;;;3.60;;
29092;SDS011;16167;48.768;14.984;2022-12-07T10:14:28;7.17;;;5.13;;
29092;SDS011;16167;48.768;14.984;2022-12-07T10:17:32;3.88;;;3.47;;
29092;SDS011;16167;48.768;14.984;2022-12-07T10:20:13;5.28;;;4.00;;
29092;SDS011;16167;48.768;14.984;2022-12-07T10:23:02;4.07;;;3.45;;
29092;SDS011;16167;48.768;14.984;2022-12-07T10:25:33;4.40;;;3.97;;
29092;SDS011;16167;48.768;14.984;2022-12-07T10:28:12;6.60;;;4.72;;
29092;SDS011;16167;48.768;14.984;2022-12-07T10:30:49;5.55;;;4.75;;
29092;SDS011;16167;48.768;14.984;2022-12-07T10:33:35;5.35;;;4.25;;
29092;SDS011;16167;48.768;14.984;2022-12-07T10:36:18;5.78;;;4.20;;
29092;SDS011;16167;48.768;14.984;2022-12-07T10:38:49;7.43;;;5.22;;
29092;SDS011;16167;48.768;14.984;2022-12-07T10:41:20;5.18;;;4.35;;
29092;SDS011;16167;48.768;14.984;2022-12-07T10:46:21;5.20;;;4.70;;
29092;SDS011;16167;48.768;14.984;2022-12-07T10:49:02;7.15;;;5.50;;
29092;SDS011;16167;48.768;14.984;2022-12-07T10:51:42;18.52;;;11.25;;
29092;SDS011;16167;48.768;14.984;2022-12-07T10:54:16;11.38;;;8.77;;
29092;SDS011;16167;48.768;14.984;2022-12-07T10:56:57;11.98;;;8.80;;
29092;SDS011;16167;48.768;14.984;2022-12-07T10:59:43;11.32;;;7.90;;
29092;SDS011;16167;48.768;14.984;2022-12-07T11:02:32;7.10;;;5.22;;
29092;SDS011;16167;48.768;14.984;2022-12-07T11:05:18;11.93;;;9.32;;
29092;SDS011;16167;48.768;14.984;2022-12-07T11:07:57;8.65;;;7.30;;
29092;SDS011;16167;48.768;14.984;2022-12-07T11:10:34;13.00;;;11.00;;
29092;SDS011;16167;48.768;14.984;2022-12-07T11:13:16;6.18;;;4.90;;
29092;SDS011;16167;48.768;14.984;2022-12-07T11:16:06;6.25;;;5.22;;
29092;SDS011;16167;48.768;14.984;2022-12-07T11:18:49;5.38;;;4.53;;
29092;SDS011;16167;48.768;14.984;2022-12-07T11:21:27;5.10;;;3.88;;
29092;SDS011;16167;48.768;14.984;2022-12-07T11:24:04;4.65;;;3.40;;
29092;SDS011;16167;48.768;14.984;2022-12-07T11:26:41;14.52;;;7.57;;
29092;SDS011;16167;48.768;14.984;2022-12-07T11:29:24;14.95;;;8.43;;
29092;SDS011;16167;48.768;14.984;2022-12-07T11:32:12;5.30;;;4.78;;
29092;SDS011;16167;48.768;14.984;2022-12-07T11:34:48;4.60;;;4.10;;
29092;SDS011;16167;48.768;14.984;2022-12-07T11:37:28;2.63;;;2.33;;
29092;SDS011;16167;48.768;14.984;2022-12-07T11:40:05;2.70;;;2.50;;
29092;SDS011;16167;48.768;14.984;2022-12-07T11:42:45;2.72;;;2.53;;
29092;SDS011;16167;48.768;14.984;2022-12-07T11:45:19;2.72;;;2.53;;
29092;SDS011;16167;48.768;14.984;2022-12-07T11:47:54;3.00;;;2.80;;
29092;SDS011;16167;48.768;14.984;2022-12-07T11:50:27;3.15;;;2.92;;
29092;SDS011;16167;48.768;14.984;2022-12-07T11:53:01;3.15;;;2.92;;
29092;SDS011;16167;48.768;14.984;2022-12-07T11:55:38;2.97;;;2.67;;
29092;SDS011;16167;48.768;14.984;2022-12-07T11:58:20;4.70;;;2.78;;
29092;SDS011;16167;48.768;14.984;2022-12-07T12:01:05;3.25;;;3.05;;
29092;SDS011;16167;48.768;14.984;2022-12-07T12:03:44;3.65;;;3.25;;
29092;SDS011;16167;48.768;14.984;2022-12-07T12:06:19;2.75;;;2.55;;
29092;SDS011;16167;48.768;14.984;2022-12-07T12:08:48;2.80;;;2.50;;
29092;SDS011;16167;48.768;14.984;2022-12-07T12:14:59;3.30;;;3.00;;
29092;SDS011;16167;48.768;14.984;2022-12-07T12:17:50;3.40;;;3.13;;
29092;SDS011;16167;48.768;14.984;2022-12-07T12:20:36;4.53;;;4.13;;
29092;SDS011;16167;48.768;14.984;2022-12-07T12:23:10;45.95;;;19.17;;
29092;SDS011;16167;48.768;14.984;2022-12-07T12:25:41;5.38;;;4.88;;
29092;SDS011;16167;48.768;14.984;2022-12-07T12:28:19;7.30;;;5.20;;
29092;SDS011;16167;48.768;14.984;2022-12-07T12:31:04;7.90;;;6.88;;
29092;SDS011;16167;48.768;14.984;2022-12-07T12:33:36;6.78;;;5.60;;
29092;SDS011;16167;48.768;14.984;2022-12-07T12:39:07;9.02;;;6.93;;
29092;SDS011;16167;48.768;14.984;2022-12-07T12:41:52;7.35;;;6.50;;
29092;SDS011;16167;48.768;14.984;2022-12-07T12:47:55;8.15;;;6.35;;
29092;SDS011;16167;48.768;14.984;2022-12-07T12:50:28;7.63;;;6.45;;
29092;SDS011;16167;48.768;14.984;2022-12-07T12:53:02;9.73;;;6.85;;
29092;SDS011;16167;48.768;14.984;2022-12-07T12:58:43;9.77;;;7.25;;
29092;SDS011;16167;48.768;14.984;2022-12-07T13:04:21;7.90;;;6.65;;
29092;SDS011;16167;48.768;14.984;2022-12-07T13:06:53;10.88;;;7.55;;
29092;SDS011;16167;48.768;14.984;2022-12-07T13:11:56;8.90;;;6.93;;
29092;SDS011;16167;48.768;14.984;2022-12-07T13:14:40;8.75;;;6.65;;
29092;SDS011;16167;48.768;14.984;2022-12-07T13:17:10;8.23;;;6.05;;
29092;SDS011;16167;48.768;14.984;2022-12-07T13:22:36;7.07;;;5.43;;
29092;SDS011;16167;48.768;14.984;2022-12-07T13:25:29;8.27;;;6.03;;
29092;SDS011;16167;48.768;14.984;2022-12-07T13:28:02;12.40;;;6.85;;
29092;SDS011;16167;48.768;14.984;2022-12-07T13:30:43;8.10;;;6.45;;
29092;SDS011;16167;48.768;14.984;2022-12-07T13:33:15;8.82;;;6.60;;
29092;SDS011;16167;48.768;14.984;2022-12-07T13:35:46;9.63;;;6.32;;
29092;SDS011;16167;48.768;14.984;2022-12-07T13:38:24;9.10;;;6.63;;
29092;SDS011;16167;48.768;14.984;2022-12-07T13:40:59;8.85;;;6.53;;
29092;SDS011;16167;48.768;14.984;2022-12-07T13:43:41;11.25;;;7.53;;
29092;SDS011;16167;48.768;14.984;2022-12-07T13:46:16;10.55;;;6.70;;
29092;SDS011;16167;48.768;14.984;2022-12-07T13:48:47;10.45;;;6.97;;
29092;SDS011;16167;48.768;14.984;2022-12-07T13:51:18;8.13;;;5.95;;
29092;SDS011;16167;48.768;14.984;2022-12-07T13:53:51;9.27;;;6.75;;
29092;SDS011;16167;48.768;14.984;2022-12-07T13:56:21;8.70;;;6.30;;
29092;SDS011;16167;48.768;14.984;2022-12-07T13:58:53;10.25;;;7.18;;
29092;SDS011;16167;48.768;14.984;2022-12-07T14:01:22;7.43;;;5.18;;
29092;SDS011;16167;48.768;14.984;2022-12-07T14:03:52;8.57;;;6.45;;
29092;SDS011;16167;48.768;14.984;2022-12-07T14:06:22;7.20;;;5.45;;
29092;SDS011;16167;48.768;14.984;2022-12-07T14:09:16;7.13;;;5.35;;
29092;SDS011;16167;48.768;14.984;2022-12-07T14:11:47;8.50;;;6.00;;
29092;SDS011;16167;48.768;14.984;2022-12-07T14:14:18;6.90;;;5.15;;
29092;SDS011;16167;48.768;14.984;2022-12-07T14:16:56;7.45;;;5.80;;
29092;SDS011;16167;48.768;14.984;2022-12-07T14:19:42;8.23;;;5.85;;
29092;SDS011;16167;48.768;14.984;2022-12-07T14:22:22;8.57;;;5.65;;
29092;SDS011;16167;48.768;14.984;2022-12-07T14:24:59;6.50;;;5.22;;
29092;SDS011;16167;48.768;14.984;2022-12-07T14:27:31;7.10;;;5.35;;
29092;SDS011;16167;48.768;14.984;2022-12-07T14:30:02;8.38;;;5.30;;
29092;SDS011;16167;48.768;14.984;2022-12-07T14:32:32;8.13;;;5.30;;
29092;SDS011;16167;48.768;14.984;2022-12-07T14:35:08;8.95;;;6.40;;
29092;SDS011;16167;48.768;14.984;2022-12-07T14:37:39;13.23;;;7.18;;
29092;SDS011;16167;48.768;14.984;2022-12-07T14:40:12;10.73;;;7.13;;
29092;SDS011;16167;48.768;14.984;2022-12-07T14:42:41;8.52;;;5.97;;
29092;SDS011;16167;48.768;14.984;2022-12-07T14:50:28;6.97;;;5.20;;
29092;SDS011;16167;48.768;14.984;2022-12-07T14:52:58;7.32;;;5.18;;
29092;SDS011;16167;48.768;14.984;2022-12-07T14:55:50;5.50;;;4.55;;
29092;SDS011;16167;48.768;14.984;2022-12-07T14:58:19;8.82;;;5.50;;
29092;SDS011;16167;48.768;14.984;2022-12-07T15:00:48;6.57;;;4.60;;
29092;SDS011;16167;48.768;14.984;2022-12-07T15:03:16;6.53;;;4.30;;
29092;SDS011;16167;48.768;14.984;2022-12-07T15:05:45;7.90;;;5.43;;
29092;SDS011;16167;48.768;14.984;2022-12-07T15:08:14;8.25;;;5.53;;
29092;SDS011;16167;48.768;14.984;2022-12-07T15:10:42;7.60;;;5.53;;
29092;SDS011;16167;48.768;14.984;2022-12-07T15:13:12;8.35;;;5.82;;
29092;SDS011;16167;48.768;14.984;2022-12-07T15:15:56;8.10;;;5.82;;
29092;SDS011;16167;48.768;14.984;2022-12-07T15:18:25;9.77;;;6.70;;
29092;SDS011;16167;48.768;14.984;2022-12-07T15:20:53;10.48;;;6.85;;
29092;SDS011;16167;48.768;14.984;2022-12-07T15:23:22;9.90;;;6.53;;
29092;SDS011;16167;48.768;14.984;2022-12-07T15:25:50;11.38;;;7.45;;
29092;SDS011;16167;48.768;14.984;2022-12-07T15:28:19;11.07;;;7.57;;
29092;SDS011;16167;48.768;14.984;2022-12-07T15:30:48;11.38;;;8.07;;
29092;SDS011;16167;48.768;14.984;2022-12-07T15:33:17;11.50;;;8.20;;
29092;SDS011;16167;48.768;14.984;2022-12-07T15:35:45;12.75;;;8.15;;
29092;SDS011;16167;48.768;14.984;2022-12-07T15:38:13;14.27;;;8.57;;
29092;SDS011;16167;48.768;14.984;2022-12-07T15:40:41;11.93;;;7.70;;
29092;SDS011;16167;48.768;14.984;2022-12-07T15:43:10;8.57;;;5.78;;